createdAt,value
2023-01-15T00:00:06.668Z,8.05
2023-01-15T00:00:29.447Z,8.20
2023-01-15T00:00:53.658Z,8.18
2023-01-15T00:01:21.700Z,8.48
2023-01-15T00:01:44.562Z,8.43
2023-01-15T00:02:07.311Z,8.80
2023-01-15T00:02:31.910Z,8.90
2023-01-15T00:02:55.956Z,8.73
2023-01-15T00:03:18.936Z,9.18
2023-01-15T00:03:41.633Z,8.82
2023-01-15T00:04:05.497Z,8.48
2023-01-15T00:04:28.283Z,8.63
2023-01-15T00:04:51.652Z,8.75
2023-01-15T00:05:14.489Z,8.65
2023-01-15T00:05:37.258Z,8.63
2023-01-15T00:06:03.088Z,8.95
2023-01-15T00:06:26.258Z,8.60
2023-01-15T00:06:49.256Z,8.82
2023-01-15T00:07:12.030Z,9.00
2023-01-15T00:07:34.892Z,9.30
2023-01-15T00:07:57.641Z,9.27
2023-01-15T00:08:20.558Z,9.30
2023-01-15T00:08:43.409Z,9.13
2023-01-15T00:09:06.472Z,8.98
2023-01-15T00:09:29.203Z,9.20
2023-01-15T00:09:52.490Z,9.20
2023-01-15T00:10:15.391Z,8.65
2023-01-15T00:10:38.073Z,8.77
2023-01-15T00:11:05.913Z,8.70
2023-01-15T00:11:28.766Z,9.05
2023-01-15T00:11:51.843Z,9.25
2023-01-15T00:12:15.619Z,9.45
2023-01-15T00:12:38.316Z,8.80
2023-01-15T00:13:01.097Z,8.75
2023-01-15T00:13:23.901Z,9.32
2023-01-15T00:13:46.776Z,9.20
2023-01-15T00:14:09.493Z,9.63
2023-01-15T00:14:32.315Z,9.30
2023-01-15T00:14:55.212Z,8.80
2023-01-15T00:15:18.430Z,9.00
2023-01-15T00:15:44.098Z,8.77
2023-01-15T00:16:10.692Z,9.75
2023-01-15T00:16:33.481Z,8.57
2023-01-15T00:16:56.183Z,8.50
2023-01-15T00:17:19.050Z,8.23
2023-01-15T00:17:41.857Z,8.23
2023-01-15T00:18:04.881Z,8.38
2023-01-15T00:18:27.682Z,8.32
2023-01-15T00:18:51.367Z,8.70
2023-01-15T00:19:14.737Z,8.88
2023-01-15T00:19:37.616Z,8.90
2023-01-15T00:20:00.362Z,8.48
2023-01-15T00:20:23.162Z,9.50
2023-01-15T00:20:45.934Z,9.45
2023-01-15T00:21:12.653Z,9.07
2023-01-15T00:21:35.378Z,8.15
2023-01-15T00:21:58.582Z,7.93
2023-01-15T00:22:21.291Z,8.00
2023-01-15T00:22:44.026Z,8.90
2023-01-15T00:23:06.771Z,8.98
2023-01-15T00:23:47.767Z,8.77
2023-01-15T00:24:29.068Z,8.82
2023-01-15T00:25:10.313Z,9.00
2023-01-15T00:25:52.009Z,9.18
2023-01-15T00:26:33.742Z,8.60
2023-01-15T00:27:14.872Z,8.65
2023-01-15T00:27:40.812Z,9.20
2023-01-15T00:28:03.701Z,9.02
2023-01-15T00:28:26.512Z,8.50
2023-01-15T00:28:49.500Z,8.57
2023-01-15T00:29:12.247Z,8.27
2023-01-15T00:29:34.972Z,7.57
2023-01-15T00:29:57.867Z,8.05
2023-01-15T00:30:20.745Z,8.57
2023-01-15T00:30:43.566Z,8.30
2023-01-15T00:31:08.264Z,7.75
2023-01-15T00:31:31.059Z,7.93
2023-01-15T00:31:56.892Z,7.00
2023-01-15T00:32:19.657Z,7.20
2023-01-15T00:32:42.969Z,7.25
2023-01-15T00:33:05.813Z,7.30
2023-01-15T00:33:28.858Z,7.63
2023-01-15T00:33:51.907Z,7.43
2023-01-15T00:34:14.611Z,6.72
2023-01-15T00:34:37.360Z,6.43
2023-01-15T00:35:00.106Z,6.93
2023-01-15T00:35:23.441Z,6.55
2023-01-15T00:35:46.116Z,6.10
2023-01-15T00:36:09.221Z,6.32
2023-01-15T00:36:33.155Z,6.78
2023-01-15T00:36:55.915Z,6.28
2023-01-15T00:37:21.090Z,5.85
2023-01-15T00:37:44.114Z,6.40
2023-01-15T00:38:06.892Z,6.70
2023-01-15T00:38:29.596Z,6.80
2023-01-15T00:38:52.397Z,7.40
2023-01-15T00:39:17.605Z,6.50
2023-01-15T00:39:40.359Z,6.70
2023-01-15T00:40:03.204Z,7.15
2023-01-15T00:40:25.913Z,7.05
2023-01-15T00:40:53.096Z,6.75
2023-01-15T00:41:15.923Z,6.60
2023-01-15T00:41:38.725Z,6.72
2023-01-15T00:42:01.476Z,6.55
2023-01-15T00:42:24.181Z,6.10
2023-01-15T00:42:53.735Z,6.43
2023-01-15T00:43:17.378Z,6.47
2023-01-15T00:43:40.062Z,6.43
2023-01-15T00:44:02.787Z,6.85
2023-01-15T00:44:25.586Z,6.75
2023-01-15T00:44:48.345Z,7.13
2023-01-15T00:45:11.312Z,7.75
2023-01-15T00:45:34.377Z,7.30
2023-01-15T00:45:57.101Z,6.90
2023-01-15T00:46:21.333Z,7.00
2023-01-15T00:46:44.159Z,6.68
2023-01-15T00:47:09.059Z,6.82
2023-01-15T00:47:31.822Z,6.28
2023-01-15T00:47:54.846Z,6.70
2023-01-15T00:48:17.730Z,6.75
2023-01-15T00:48:40.861Z,6.85
2023-01-15T00:49:03.633Z,6.80
2023-01-15T00:49:26.322Z,6.38
2023-01-15T00:49:50.622Z,6.70
2023-01-15T00:50:15.044Z,6.85
2023-01-15T00:50:37.767Z,6.22
2023-01-15T00:51:00.533Z,6.50
2023-01-15T00:51:23.240Z,6.75
2023-01-15T00:51:46.089Z,6.55
2023-01-15T00:52:09.133Z,6.38
2023-01-15T00:52:31.885Z,6.38
2023-01-15T00:52:54.798Z,6.43
2023-01-15T00:53:17.580Z,6.30
2023-01-15T00:53:40.423Z,5.90
2023-01-15T00:54:03.133Z,5.97
2023-01-15T00:54:25.830Z,5.60
2023-01-15T00:54:48.817Z,5.40
2023-01-15T00:55:11.530Z,5.30
2023-01-15T00:55:36.473Z,5.35
2023-01-15T00:55:59.223Z,5.60
2023-01-15T00:56:22.063Z,5.72
2023-01-15T00:56:44.807Z,5.82
2023-01-15T00:57:11.559Z,6.20
2023-01-15T00:57:34.251Z,5.60
2023-01-15T00:57:56.937Z,5.65
2023-01-15T00:58:22.287Z,5.53
2023-01-15T00:58:46.621Z,5.65
2023-01-15T00:59:09.287Z,5.20
2023-01-15T00:59:31.996Z,5.20
2023-01-15T00:59:54.724Z,5.45
2023-01-15T01:00:18.085Z,5.25
2023-01-15T01:00:40.882Z,5.30
2023-01-15T01:01:03.709Z,5.45
2023-01-15T01:01:28.039Z,5.45
2023-01-15T01:01:50.985Z,5.45
2023-01-15T01:02:14.168Z,5.40
2023-01-15T01:02:36.992Z,5.18
2023-01-15T01:03:01.978Z,5.20
2023-01-15T01:03:24.649Z,5.30
2023-01-15T01:03:53.017Z,4.82
2023-01-15T01:04:15.971Z,5.10
2023-01-15T01:04:38.658Z,5.25
2023-01-15T01:05:01.402Z,5.20
2023-01-15T01:05:24.104Z,5.20
2023-01-15T01:05:46.933Z,4.93
2023-01-15T01:06:10.362Z,5.10
2023-01-15T01:06:33.181Z,4.90
2023-01-15T01:06:55.945Z,4.93
2023-01-15T01:07:21.133Z,4.90
2023-01-15T01:07:43.897Z,4.63
2023-01-15T01:08:06.661Z,4.43
2023-01-15T01:08:29.421Z,4.78
2023-01-15T01:08:52.156Z,5.05
2023-01-15T01:09:15.050Z,5.15
2023-01-15T01:09:37.779Z,5.20
2023-01-15T01:10:00.465Z,4.72
2023-01-15T01:10:23.241Z,4.70
2023-01-15T01:10:46.012Z,5.10
2023-01-15T01:11:10.499Z,5.03
2023-01-15T01:11:34.727Z,4.82
2023-01-15T01:11:57.451Z,5.03
2023-01-15T01:12:21.398Z,4.88
2023-01-15T01:12:44.193Z,4.78
2023-01-15T01:13:06.982Z,4.97
2023-01-15T01:13:29.777Z,4.70
2023-01-15T01:13:52.462Z,4.70
2023-01-15T01:14:15.218Z,4.70
2023-01-15T01:14:37.970Z,4.80
2023-01-15T01:15:00.704Z,4.93
2023-01-15T01:15:25.868Z,4.72
2023-01-15T01:15:48.648Z,5.10
2023-01-15T01:16:30.508Z,4.85
2023-01-15T01:16:53.437Z,4.68
2023-01-15T01:17:16.207Z,4.80
2023-01-15T01:17:41.338Z,5.00
2023-01-15T01:18:04.320Z,5.05
2023-01-15T01:18:29.283Z,4.75
2023-01-15T01:18:52.150Z,4.80
2023-01-15T01:19:15.856Z,4.75
2023-01-15T01:19:38.651Z,4.70
2023-01-15T01:20:01.542Z,4.85
2023-01-15T01:20:24.237Z,5.22
2023-01-15T01:20:46.973Z,5.22
2023-01-15T01:21:09.692Z,4.75
2023-01-15T01:21:32.327Z,4.90
2023-01-15T01:21:55.047Z,4.78
2023-01-15T01:22:20.327Z,4.80
2023-01-15T01:22:43.105Z,5.00
2023-01-15T01:23:08.325Z,4.93
2023-01-15T01:23:33.021Z,5.30
2023-01-15T01:23:55.959Z,4.97
2023-01-15T01:24:19.805Z,4.90
2023-01-15T01:24:42.562Z,5.00
2023-01-15T01:25:06.092Z,5.05
2023-01-15T01:25:28.808Z,4.93
2023-01-15T01:25:51.522Z,4.88
2023-01-15T01:26:14.278Z,4.82
2023-01-15T01:26:36.974Z,4.90
2023-01-15T01:26:59.712Z,4.80
2023-01-15T01:27:22.409Z,5.18
2023-01-15T01:27:45.192Z,5.20
2023-01-15T01:28:07.916Z,4.95
2023-01-15T01:28:30.657Z,5.15
2023-01-15T01:28:53.626Z,4.95
2023-01-15T01:29:17.155Z,5.10
2023-01-15T01:29:39.999Z,5.20
2023-01-15T01:30:04.941Z,5.32
2023-01-15T01:30:27.743Z,4.97
2023-01-15T01:30:50.406Z,4.90
2023-01-15T01:31:15.420Z,4.88
2023-01-15T01:31:39.917Z,5.13
2023-01-15T01:32:02.679Z,5.05
2023-01-15T01:32:25.432Z,5.15
2023-01-15T01:32:48.166Z,4.90
2023-01-15T01:33:10.946Z,4.78
2023-01-15T01:33:33.656Z,5.13
2023-01-15T01:34:00.909Z,5.32
2023-01-15T01:34:23.677Z,5.10
2023-01-15T01:34:46.310Z,5.00
2023-01-15T01:35:09.667Z,4.82
2023-01-15T01:35:32.381Z,5.20
2023-01-15T01:35:55.217Z,4.85
2023-01-15T01:36:18.084Z,5.10
2023-01-15T01:36:43.757Z,4.88
2023-01-15T01:37:06.574Z,4.70
2023-01-15T01:37:29.232Z,4.55
2023-01-15T01:37:52.014Z,4.80
2023-01-15T01:38:14.815Z,4.95
2023-01-15T01:38:37.477Z,4.82
2023-01-15T01:39:00.332Z,4.90
2023-01-15T01:39:23.100Z,4.97
2023-01-15T01:39:49.037Z,4.97
2023-01-15T01:40:12.556Z,4.80
2023-01-15T01:40:35.350Z,4.68
2023-01-15T01:40:58.088Z,4.43
2023-01-15T01:41:20.757Z,4.57
2023-01-15T01:41:43.579Z,4.70
2023-01-15T01:42:12.431Z,4.75
2023-01-15T01:42:35.111Z,4.70
2023-01-15T01:42:57.858Z,4.93
2023-01-15T01:43:21.931Z,5.45
2023-01-15T01:43:56.585Z,5.00
2023-01-15T01:44:56.178Z,4.80
2023-01-15T01:45:25.087Z,4.97
2023-01-15T01:45:48.215Z,4.82
2023-01-15T01:46:11.111Z,4.82
2023-01-15T01:46:35.223Z,5.10
2023-01-15T01:47:00.034Z,4.70
2023-01-15T01:47:24.000Z,5.20
2023-01-15T01:47:46.762Z,5.13
2023-01-15T01:48:09.469Z,4.70
2023-01-15T01:48:33.798Z,4.68
2023-01-15T01:48:57.941Z,4.85
2023-01-15T01:49:21.999Z,4.90
2023-01-15T01:49:44.864Z,4.78
2023-01-15T01:50:10.054Z,4.80
2023-01-15T01:50:32.801Z,5.03
2023-01-15T01:50:58.035Z,5.05
2023-01-15T01:51:21.351Z,4.82
2023-01-15T01:51:49.057Z,4.85
2023-01-15T01:52:16.714Z,4.75
2023-01-15T01:52:42.642Z,4.90
2023-01-15T01:53:07.537Z,5.13
2023-01-15T01:53:30.711Z,4.80
2023-01-15T01:53:53.507Z,4.47
2023-01-15T01:54:17.647Z,5.00
2023-01-15T01:54:40.406Z,4.60
2023-01-15T01:55:03.091Z,4.80
2023-01-15T01:55:28.447Z,4.75
2023-01-15T01:55:51.391Z,4.55
2023-01-15T01:56:17.803Z,4.65
2023-01-15T01:56:40.621Z,4.93
2023-01-15T01:57:03.347Z,4.78
2023-01-15T01:57:26.241Z,4.70
2023-01-15T01:57:51.309Z,4.50
2023-01-15T01:58:14.124Z,4.35
2023-01-15T01:58:36.923Z,4.93
2023-01-15T01:58:59.685Z,4.85
2023-01-15T01:59:22.471Z,4.45
2023-01-15T01:59:45.272Z,4.47
2023-01-15T02:00:11.700Z,4.50
2023-01-15T02:00:34.479Z,4.40
2023-01-15T02:00:57.451Z,4.53
2023-01-15T02:01:20.619Z,4.60
2023-01-15T02:01:43.527Z,4.70
2023-01-15T02:02:08.136Z,4.30
2023-01-15T02:02:30.987Z,4.50
2023-01-15T02:02:53.801Z,4.40
2023-01-15T02:03:19.199Z,4.63
2023-01-15T02:03:41.981Z,4.70
2023-01-15T02:04:06.242Z,4.70
2023-01-15T02:04:29.044Z,4.60
2023-01-15T02:04:52.909Z,4.57
2023-01-15T02:05:20.611Z,4.45
2023-01-15T02:05:46.637Z,4.30
2023-01-15T02:06:10.740Z,4.43
2023-01-15T02:06:33.445Z,4.50
2023-01-15T02:06:56.166Z,4.30
2023-01-15T02:07:18.901Z,4.60
2023-01-15T02:07:41.778Z,4.57
2023-01-15T02:08:05.129Z,4.70
2023-01-15T02:08:27.979Z,4.85
2023-01-15T02:08:50.657Z,4.47
2023-01-15T02:09:13.388Z,4.38
2023-01-15T02:09:36.149Z,4.20
2023-01-15T02:09:58.984Z,4.35
2023-01-15T02:10:21.776Z,4.70
2023-01-15T02:10:45.121Z,4.60
2023-01-15T02:11:08.000Z,4.55
2023-01-15T02:11:33.246Z,4.32
2023-01-15T02:11:57.807Z,4.40
2023-01-15T02:12:23.218Z,4.30
2023-01-15T02:12:49.685Z,4.47
2023-01-15T02:13:14.881Z,4.47
2023-01-15T02:13:39.111Z,4.25
2023-01-15T02:14:05.046Z,4.72
2023-01-15T02:14:30.725Z,4.45
2023-01-15T02:15:00.205Z,4.50
2023-01-15T02:15:27.046Z,4.57
2023-01-15T02:15:53.292Z,4.57
2023-01-15T02:16:17.081Z,4.65
2023-01-15T02:16:42.383Z,4.78
2023-01-15T02:17:08.197Z,4.78
2023-01-15T02:17:33.711Z,4.68
2023-01-15T02:18:01.480Z,4.63
2023-01-15T02:18:26.880Z,4.97
2023-01-15T02:18:51.923Z,4.75
2023-01-15T02:19:19.612Z,4.40
2023-01-15T02:19:52.142Z,4.57
2023-01-15T02:20:23.268Z,4.32
2023-01-15T02:20:48.669Z,4.63
2023-01-15T02:21:16.161Z,4.30
2023-01-15T02:21:45.339Z,4.47
2023-01-15T02:22:14.411Z,4.32
2023-01-15T02:22:41.702Z,4.47
2023-01-15T02:23:12.747Z,4.82
2023-01-15T02:24:03.331Z,4.40
2023-01-15T02:24:31.437Z,4.70
2023-01-15T02:24:59.940Z,4.47
2023-01-15T02:25:25.018Z,4.70
2023-01-15T02:25:57.491Z,4.50
2023-01-15T02:26:43.938Z,4.25
2023-01-15T02:27:16.408Z,4.68
2023-01-15T02:27:39.206Z,4.63
2023-01-15T02:28:04.602Z,4.35
2023-01-15T02:28:27.973Z,4.45
2023-01-15T02:28:51.576Z,4.45
2023-01-15T02:29:17.960Z,4.50
2023-01-15T02:29:45.687Z,4.90
2023-01-15T02:30:10.898Z,4.65
2023-01-15T02:30:35.669Z,4.82
2023-01-15T02:31:00.966Z,4.45
2023-01-15T02:31:26.149Z,4.53
2023-01-15T02:31:51.471Z,4.30
2023-01-15T02:32:17.362Z,4.60
2023-01-15T02:32:41.406Z,4.57
2023-01-15T02:33:06.415Z,4.55
2023-01-15T02:33:31.893Z,4.47
2023-01-15T02:33:56.901Z,4.28
2023-01-15T02:34:21.447Z,4.85
2023-01-15T02:34:48.215Z,4.68
2023-01-15T02:35:13.075Z,4.28
2023-01-15T02:35:38.449Z,4.38
2023-01-15T02:36:01.306Z,4.65
2023-01-15T02:36:24.627Z,4.65
2023-01-15T02:36:49.026Z,4.50
2023-01-15T02:37:14.626Z,4.68
2023-01-15T02:37:39.215Z,4.63
2023-01-15T02:38:03.205Z,4.53
2023-01-15T02:38:25.943Z,4.85
2023-01-15T02:38:49.200Z,4.60
2023-01-15T02:39:13.351Z,4.60
2023-01-15T02:39:36.441Z,4.90
2023-01-15T02:39:59.976Z,4.65
2023-01-15T02:40:23.427Z,4.75
2023-01-15T02:40:46.236Z,4.72
2023-01-15T02:41:16.412Z,4.38
2023-01-15T02:41:41.601Z,4.30
2023-01-15T02:42:05.179Z,3.92
2023-01-15T02:42:29.564Z,4.50
2023-01-15T02:42:52.330Z,4.93
2023-01-15T02:43:15.115Z,4.78
2023-01-15T02:43:37.891Z,4.57
2023-01-15T02:44:00.615Z,4.65
2023-01-15T02:44:23.377Z,4.85
2023-01-15T02:44:48.953Z,4.38
2023-01-15T02:45:11.697Z,4.65
2023-01-15T02:45:37.060Z,4.60
2023-01-15T02:45:59.924Z,5.03
2023-01-15T02:46:25.021Z,5.00
2023-01-15T02:46:47.819Z,4.82
2023-01-15T02:47:11.209Z,4.55
2023-01-15T02:47:35.541Z,4.40
2023-01-15T02:47:59.410Z,4.35
2023-01-15T02:48:25.121Z,4.78
2023-01-15T02:48:52.494Z,4.60
2023-01-15T02:49:17.188Z,4.85
2023-01-15T02:49:39.977Z,4.88
2023-01-15T02:50:06.155Z,4.80
2023-01-15T02:50:31.370Z,4.25
2023-01-15T02:50:56.016Z,4.30
2023-01-15T02:51:21.322Z,4.95
2023-01-15T02:51:46.231Z,4.60
2023-01-15T02:52:10.415Z,4.88
2023-01-15T02:52:35.291Z,4.82
2023-01-15T02:53:00.108Z,4.65
2023-01-15T02:53:24.051Z,4.40
2023-01-15T02:53:48.501Z,4.90
2023-01-15T02:54:12.495Z,4.68
2023-01-15T02:54:37.751Z,4.80
2023-01-15T02:55:01.280Z,5.10
2023-01-15T02:55:26.410Z,4.55
2023-01-15T02:55:51.064Z,4.35
2023-01-15T02:56:15.063Z,4.50
2023-01-15T02:56:37.901Z,4.13
2023-01-15T02:57:00.727Z,4.40
2023-01-15T02:57:23.689Z,5.15
2023-01-15T02:57:48.326Z,4.97
2023-01-15T02:58:12.470Z,4.65
2023-01-15T02:58:36.733Z,4.95
2023-01-15T02:59:01.449Z,5.05
2023-01-15T02:59:25.423Z,4.82
2023-01-15T02:59:48.750Z,4.80
2023-01-15T03:00:13.834Z,4.90
2023-01-15T03:00:37.854Z,5.13
2023-01-15T03:01:01.523Z,4.63
2023-01-15T03:01:28.418Z,4.22
2023-01-15T03:01:53.839Z,4.97
2023-01-15T03:02:20.749Z,4.60
2023-01-15T03:02:48.491Z,4.20
2023-01-15T03:03:13.929Z,4.35
2023-01-15T03:03:40.202Z,4.40
2023-01-15T03:04:05.812Z,4.38
2023-01-15T03:04:31.387Z,4.50
2023-01-15T03:04:56.321Z,4.68
2023-01-15T03:05:21.020Z,4.72
2023-01-15T03:05:46.085Z,4.93
2023-01-15T03:06:11.104Z,4.72
2023-01-15T03:06:36.164Z,4.78
2023-01-15T03:07:05.159Z,4.80
2023-01-15T03:07:31.251Z,4.78
2023-01-15T03:07:55.206Z,4.50
2023-01-15T03:08:17.931Z,4.85
2023-01-15T03:08:40.759Z,4.65
2023-01-15T03:09:03.572Z,4.93
2023-01-15T03:09:26.400Z,4.88
2023-01-15T03:09:51.650Z,4.95
2023-01-15T03:10:14.495Z,4.90
2023-01-15T03:10:41.602Z,4.57
2023-01-15T03:11:06.901Z,4.50
2023-01-15T03:11:29.635Z,4.80
2023-01-15T03:11:55.836Z,4.72
2023-01-15T03:12:22.723Z,4.72
2023-01-15T03:13:03.471Z,5.10
2023-01-15T03:13:30.295Z,4.75
2023-01-15T03:13:56.925Z,5.18
2023-01-15T03:14:20.837Z,4.72
2023-01-15T03:14:49.925Z,4.80
2023-01-15T03:15:33.849Z,4.80
2023-01-15T03:16:17.953Z,5.22
2023-01-15T03:16:42.309Z,4.60
2023-01-15T03:17:09.488Z,4.70
2023-01-15T03:17:35.445Z,4.97
2023-01-15T03:17:58.199Z,4.80
2023-01-15T03:18:20.982Z,5.18
2023-01-15T03:18:46.080Z,5.32
2023-01-15T03:19:14.171Z,4.80
2023-01-15T03:19:39.766Z,4.88
2023-01-15T03:20:09.317Z,4.80
2023-01-15T03:20:32.006Z,4.78
2023-01-15T03:20:58.854Z,5.07
2023-01-15T03:21:26.712Z,5.30
2023-01-15T03:21:51.455Z,4.90
2023-01-15T03:22:18.268Z,4.70
2023-01-15T03:22:42.888Z,4.82
2023-01-15T03:23:08.981Z,4.93
2023-01-15T03:23:31.755Z,4.78
2023-01-15T03:23:55.208Z,4.72
2023-01-15T03:24:24.347Z,5.40
2023-01-15T03:24:49.301Z,4.95
2023-01-15T03:25:13.341Z,5.10
2023-01-15T03:25:38.250Z,4.90
2023-01-15T03:26:00.997Z,4.78
2023-01-15T03:26:23.695Z,4.60
2023-01-15T03:26:46.476Z,4.82
2023-01-15T03:27:09.291Z,5.07
2023-01-15T03:27:32.030Z,5.10
2023-01-15T03:27:58.487Z,5.03
2023-01-15T03:28:22.881Z,4.70
2023-01-15T03:28:45.930Z,4.72
2023-01-15T03:29:08.598Z,5.00
2023-01-15T03:29:33.190Z,5.15
2023-01-15T03:30:01.224Z,4.90
2023-01-15T03:30:24.037Z,5.40
2023-01-15T03:30:47.035Z,5.10
2023-01-15T03:31:09.829Z,5.32
2023-01-15T03:31:35.751Z,5.20
2023-01-15T03:31:59.534Z,5.47
2023-01-15T03:32:22.320Z,5.40
2023-01-15T03:32:44.986Z,5.97
2023-01-15T03:33:11.614Z,5.68
2023-01-15T03:33:35.150Z,5.32
2023-01-15T03:33:57.928Z,5.43
2023-01-15T03:34:20.729Z,5.38
2023-01-15T03:34:48.488Z,5.40
2023-01-15T03:35:45.267Z,5.43
2023-01-15T03:36:09.409Z,5.30
2023-01-15T03:36:32.160Z,5.15
2023-01-15T03:36:54.894Z,5.50
2023-01-15T03:37:17.883Z,6.03
2023-01-15T03:37:40.642Z,5.45
2023-01-15T03:38:05.925Z,5.18
2023-01-15T03:38:30.030Z,4.90
2023-01-15T03:38:52.811Z,5.10
2023-01-15T03:39:17.902Z,5.20
2023-01-15T03:39:40.642Z,5.00
2023-01-15T03:40:04.566Z,5.07
2023-01-15T03:40:27.276Z,5.22
2023-01-15T03:40:54.890Z,4.60
2023-01-15T03:41:21.295Z,4.80
2023-01-15T03:41:52.405Z,5.13
2023-01-15T03:42:18.974Z,4.85
2023-01-15T03:42:47.455Z,5.00
2023-01-15T03:43:31.580Z,4.95
2023-01-15T03:44:01.029Z,4.85
2023-01-15T03:44:32.321Z,4.90
2023-01-15T03:44:58.595Z,5.07
2023-01-15T03:45:26.166Z,5.03
2023-01-15T03:45:49.362Z,4.70
2023-01-15T03:46:18.354Z,4.97
2023-01-15T03:46:51.285Z,4.93
2023-01-15T03:47:21.259Z,4.72
2023-01-15T03:47:50.323Z,4.70
2023-01-15T03:48:16.011Z,5.20
2023-01-15T03:48:42.246Z,5.10
2023-01-15T03:49:08.369Z,4.60
2023-01-15T03:49:38.084Z,4.90
2023-01-15T03:50:05.124Z,4.90
2023-01-15T03:50:32.090Z,4.72
2023-01-15T03:50:56.652Z,4.80
2023-01-15T03:51:24.247Z,4.63
2023-01-15T03:51:52.032Z,5.20
2023-01-15T03:52:17.540Z,4.85
2023-01-15T03:52:44.497Z,4.75
2023-01-15T03:53:09.648Z,5.03
2023-01-15T03:53:33.823Z,5.20
2023-01-15T03:53:57.965Z,5.00
2023-01-15T03:54:24.004Z,5.20
2023-01-15T03:54:49.490Z,4.95
2023-01-15T03:55:14.947Z,5.03
2023-01-15T03:55:40.983Z,5.18
2023-01-15T03:56:06.232Z,4.68
2023-01-15T03:56:31.727Z,4.40
2023-01-15T03:56:57.292Z,4.63
2023-01-15T03:57:26.206Z,5.07
2023-01-15T03:57:50.229Z,4.72
2023-01-15T03:58:17.508Z,4.70
2023-01-15T03:58:41.091Z,5.18
2023-01-15T03:59:05.767Z,5.10
2023-01-15T03:59:31.058Z,4.80
2023-01-15T03:59:55.209Z,4.53
2023-01-15T04:00:21.939Z,4.80
2023-01-15T04:00:46.805Z,4.65
2023-01-15T04:01:11.193Z,5.10
2023-01-15T04:01:37.587Z,4.85
2023-01-15T04:02:00.757Z,4.95
2023-01-15T04:02:23.568Z,4.57
2023-01-15T04:02:46.309Z,4.90
2023-01-15T04:03:08.982Z,4.95
2023-01-15T04:03:32.814Z,4.82
2023-01-15T04:03:56.058Z,5.05
2023-01-15T04:04:18.945Z,5.32
2023-01-15T04:04:41.907Z,5.30
2023-01-15T04:05:05.185Z,4.90
2023-01-15T04:05:27.982Z,4.47
2023-01-15T04:05:50.730Z,4.63
2023-01-15T04:06:13.480Z,4.90
2023-01-15T04:06:40.440Z,5.18
2023-01-15T04:07:04.036Z,4.93
2023-01-15T04:07:26.799Z,4.35
2023-01-15T04:07:49.626Z,4.25
2023-01-15T04:08:12.374Z,4.80
2023-01-15T04:08:38.445Z,4.75
2023-01-15T04:09:01.177Z,4.78
2023-01-15T04:09:23.981Z,5.07
2023-01-15T04:09:47.848Z,4.75
2023-01-15T04:10:11.692Z,4.60
2023-01-15T04:10:34.497Z,4.85
2023-01-15T04:10:58.091Z,4.88
2023-01-15T04:11:24.687Z,4.68
2023-01-15T04:11:47.460Z,4.72
2023-01-15T04:12:10.496Z,4.50
2023-01-15T04:12:34.421Z,4.43
2023-01-15T04:12:57.139Z,5.05
2023-01-15T04:13:23.818Z,5.10
2023-01-15T04:13:46.589Z,4.80
2023-01-15T04:14:10.080Z,4.47
2023-01-15T04:14:33.943Z,4.47
2023-01-15T04:14:58.971Z,4.28
2023-01-15T04:15:21.744Z,4.57
2023-01-15T04:15:44.509Z,4.60
2023-01-15T04:16:08.755Z,4.63
2023-01-15T04:16:32.347Z,4.68
2023-01-15T04:16:55.207Z,4.75
2023-01-15T04:17:17.922Z,4.70
2023-01-15T04:17:40.714Z,4.70
2023-01-15T04:18:05.937Z,4.65
2023-01-15T04:18:28.665Z,4.80
2023-01-15T04:18:52.559Z,4.60
2023-01-15T04:19:15.325Z,4.78
2023-01-15T04:19:38.115Z,4.28
2023-01-15T04:20:00.820Z,4.78
2023-01-15T04:20:23.826Z,4.80
2023-01-15T04:20:46.584Z,4.53
2023-01-15T04:21:09.371Z,4.93
2023-01-15T04:21:32.105Z,4.43
2023-01-15T04:21:54.788Z,4.50
2023-01-15T04:22:17.480Z,4.55
2023-01-15T04:22:42.675Z,4.60
2023-01-15T04:23:05.430Z,4.65
2023-01-15T04:23:28.088Z,4.53
2023-01-15T04:23:50.778Z,4.63
2023-01-15T04:24:15.941Z,4.53
2023-01-15T04:24:38.829Z,4.57
2023-01-15T04:25:04.616Z,4.30
2023-01-15T04:25:27.328Z,4.32
2023-01-15T04:25:52.291Z,4.25
2023-01-15T04:26:15.040Z,4.65
2023-01-15T04:26:37.812Z,4.78
2023-01-15T04:27:00.631Z,4.70
2023-01-15T04:27:23.359Z,4.72
2023-01-15T04:27:48.265Z,4.93
2023-01-15T04:28:11.067Z,4.30
2023-01-15T04:28:38.334Z,4.53
2023-01-15T04:29:01.222Z,4.72
2023-01-15T04:29:24.389Z,4.65
2023-01-15T04:29:47.191Z,4.60
2023-01-15T04:30:11.826Z,4.57
2023-01-15T04:30:34.772Z,4.53
2023-01-15T04:30:58.144Z,4.55
2023-01-15T04:31:21.030Z,4.40
2023-01-15T04:31:43.899Z,3.90
2023-01-15T04:32:06.687Z,4.10
2023-01-15T04:32:29.387Z,4.82
2023-01-15T04:32:52.085Z,4.80
2023-01-15T04:33:14.870Z,4.85
2023-01-15T04:33:39.368Z,4.57
2023-01-15T04:34:02.117Z,4.40
2023-01-15T04:34:26.087Z,3.88
2023-01-15T04:34:48.933Z,4.00
2023-01-15T04:35:11.732Z,4.10
2023-01-15T04:35:36.166Z,4.55
2023-01-15T04:36:00.165Z,4.00
2023-01-15T04:36:23.022Z,4.32
2023-01-15T04:36:48.167Z,4.20
2023-01-15T04:37:13.285Z,4.00
2023-01-15T04:37:36.139Z,4.13
2023-01-15T04:37:59.374Z,4.32
2023-01-15T04:38:22.157Z,4.20
2023-01-15T04:38:44.964Z,4.32
2023-01-15T04:39:07.919Z,4.15
2023-01-15T04:39:30.790Z,4.32
2023-01-15T04:39:53.522Z,4.43
2023-01-15T04:40:35.364Z,4.38
2023-01-15T04:41:19.944Z,3.83
2023-01-15T04:42:01.447Z,4.10
2023-01-15T04:42:42.548Z,4.25
2023-01-15T04:43:24.006Z,4.30
2023-01-15T04:44:06.743Z,4.45
2023-01-15T04:44:29.498Z,4.30
2023-01-15T04:44:52.277Z,4.38
2023-01-15T04:45:15.154Z,4.22
2023-01-15T04:45:37.825Z,4.65
2023-01-15T04:46:00.746Z,4.55
2023-01-15T04:46:23.659Z,4.55
2023-01-15T04:46:47.924Z,4.28
2023-01-15T04:47:10.867Z,4.60
2023-01-15T04:47:33.947Z,4.40
2023-01-15T04:47:56.646Z,4.20
2023-01-15T04:48:19.485Z,4.18
2023-01-15T04:48:42.254Z,3.97
2023-01-15T04:49:06.083Z,4.13
2023-01-15T04:49:28.816Z,3.95
2023-01-15T04:49:51.532Z,4.20
2023-01-15T04:50:14.285Z,4.18
2023-01-15T04:50:39.619Z,4.45
2023-01-15T04:51:04.492Z,4.28
2023-01-15T04:51:27.223Z,4.32
2023-01-15T04:51:49.932Z,4.20
2023-01-15T04:52:12.690Z,4.10
2023-01-15T04:52:37.613Z,4.00
2023-01-15T04:53:00.327Z,4.20
2023-01-15T04:53:23.040Z,4.18
2023-01-15T04:53:45.789Z,4.28
2023-01-15T04:54:08.699Z,4.20
2023-01-15T04:54:31.571Z,4.00
2023-01-15T04:54:55.964Z,4.13
2023-01-15T04:55:18.887Z,4.18
2023-01-15T04:55:41.627Z,3.92
2023-01-15T04:56:04.757Z,4.05
2023-01-15T04:56:27.501Z,4.05
2023-01-15T04:56:51.722Z,4.00
2023-01-15T04:57:14.431Z,4.10
2023-01-15T04:57:39.062Z,4.00
2023-01-15T04:58:01.800Z,3.88
2023-01-15T04:58:24.504Z,4.18
2023-01-15T04:58:48.691Z,4.40
2023-01-15T04:59:11.558Z,4.45
2023-01-15T04:59:34.355Z,4.25
2023-01-15T04:59:58.588Z,4.20
2023-01-15T05:00:23.204Z,3.92
2023-01-15T05:00:45.955Z,4.25
2023-01-15T05:01:15.203Z,4.38
2023-01-15T05:01:38.142Z,4.10
2023-01-15T05:02:06.427Z,4.03
2023-01-15T05:02:29.616Z,4.07
2023-01-15T05:02:52.704Z,4.22
2023-01-15T05:03:15.461Z,4.47
2023-01-15T05:03:38.206Z,4.32
2023-01-15T05:04:01.226Z,4.07
2023-01-15T05:04:24.021Z,4.25
2023-01-15T05:04:47.055Z,4.60
2023-01-15T05:05:10.153Z,4.13
2023-01-15T05:05:33.616Z,4.50
2023-01-15T05:05:56.302Z,4.10
2023-01-15T05:06:19.075Z,4.30
2023-01-15T05:06:41.769Z,4.20
2023-01-15T05:07:04.831Z,4.10
2023-01-15T05:07:27.506Z,4.20
2023-01-15T05:07:50.245Z,4.25
2023-01-15T05:08:13.987Z,4.60
2023-01-15T05:08:36.806Z,4.35
2023-01-15T05:08:59.595Z,4.28
2023-01-15T05:09:22.360Z,4.10
2023-01-15T05:09:45.283Z,4.60
2023-01-15T05:10:12.590Z,4.57
2023-01-15T05:10:35.589Z,4.30
2023-01-15T05:11:02.891Z,4.30
2023-01-15T05:11:25.786Z,4.53
2023-01-15T05:11:48.641Z,4.20
2023-01-15T05:12:11.398Z,4.20
2023-01-15T05:12:34.164Z,4.43
2023-01-15T05:12:56.894Z,4.22
2023-01-15T05:13:21.836Z,4.57
2023-01-15T05:13:44.566Z,4.40
2023-01-15T05:14:08.807Z,4.07
2023-01-15T05:14:31.542Z,4.30
2023-01-15T05:14:56.624Z,4.03
2023-01-15T05:15:20.427Z,3.75
2023-01-15T05:15:46.558Z,4.80
2023-01-15T05:16:13.688Z,4.55
2023-01-15T05:16:38.254Z,4.60
2023-01-15T05:17:00.997Z,4.13
2023-01-15T05:17:23.680Z,4.55
2023-01-15T05:17:46.741Z,4.45
2023-01-15T05:18:09.611Z,3.95
2023-01-15T05:18:32.351Z,4.00
2023-01-15T05:18:57.552Z,4.20
2023-01-15T05:19:20.463Z,4.10
2023-01-15T05:19:43.206Z,4.15
2023-01-15T05:20:08.813Z,4.32
2023-01-15T05:20:31.536Z,4.05
2023-01-15T05:20:54.353Z,4.10
2023-01-15T05:21:18.615Z,4.10
2023-01-15T05:21:42.482Z,4.05
2023-01-15T05:22:06.269Z,4.28
2023-01-15T05:22:28.968Z,4.30
2023-01-15T05:22:53.929Z,4.05
2023-01-15T05:23:16.752Z,3.95
2023-01-15T05:23:39.456Z,4.28
2023-01-15T05:24:03.224Z,4.40
2023-01-15T05:24:25.987Z,4.22
2023-01-15T05:24:48.755Z,4.35
2023-01-15T05:25:11.448Z,4.38
2023-01-15T05:25:34.392Z,4.40
2023-01-15T05:25:57.240Z,4.60
2023-01-15T05:26:22.778Z,4.28
2023-01-15T05:26:45.596Z,4.60
2023-01-15T05:27:08.358Z,4.32